Cleveland, OH

1:07 PM EST on February 24, 2017 (GMT -0500)
LeanDog | | Change Station

Elev 574 ft 41.51 °N, 81.69 °W | Updated 13 seconds ago

Scattered Clouds
Scattered Clouds
72.5 °F
Feels Like 76 °F
N
10.0
Wind Variable Wind from South
Gusts 25.0 mph

Today
High -- | Low -- °F
--% Chance of Precip.
Yesterday
High -- | Low -- °F
Precip. -- in
Pressure 29.60 in
Visibility 10.0 miles
Clouds Scattered Clouds 3800 ft
Heat Index 76 °F
Dew Point 57 °F
Humidity 58%
Rainfall 0.00 in
Snow Depth Not available.
7:08 AM 6:11 PM
Waning Crescent, 4% visible
METAR KBKL 241753Z 19017G27KT 10SM SCT038 23/12 A2959 RMK AO2 PK WND 19030/1716 SLP021 T02330122 10239 20156 58020
Pressure 29.60 in
Visibility 10.0 miles
Clouds Scattered Clouds 3800 ft
Heat Index 76 °F
Dew Point 57 °F
Humidity 58%
Rainfall 0.00 in
Snow Depth Not available.
7:08 AM 6:11 PM
Waning Crescent, 4% visible
METAR KBKL 241753Z 19017G27KT 10SM SCT038 23/12 A2959 RMK AO2 PK WND 19030/1716 SLP021 T02330122 10239 20156 58020

Get Your Daily Forecast Email!

Thanks for signing up!

Be on the lookout for a verification email in your inbox.

You'll start receiving the daily forecast at 8 AM.

×

10-Day Weather Forecast

Almanac

Astronomy

Feb. 24, 2017 Rise Set
Actual Time
Civil Twilight
Nautical Twilight
Astronomical Twilight
Moon
Length of Visible Light
Length of Day
Tomorrow will be .
, % of the Moon is Illuminated

Today's Extremes

State Highs State Lows

Community

WunderPhotos

Upload Photos

1,962,540 photos uploaded!

WunderBlog® & News

Nearby

Air Quality

  Air Quality AQ Index Pollutant
Not available.

Snow Depth

Station Depth Elevation

Earthquake Activity

City Distance Mag. Time & Date
Minimum magnitude displayed is 2.5.

Coastal Water Temperatures

Place Temperature

Stations

Nearby Weather Stations

Station Location Temp. Windchill Dew Point Humidity Wind Precip. Elev Updated Type
                   

Watches & Warnings

There are currently no watches in effect.